createdAt,value
2023-03-29T00:00:43.199Z,66.30
2023-03-29T00:03:12.388Z,66.30
2023-03-29T00:05:41.108Z,66.40
2023-03-29T00:08:09.340Z,66.50
2023-03-29T00:10:38.543Z,66.50
2023-03-29T00:13:06.625Z,66.60
2023-03-29T00:15:34.470Z,66.50
2023-03-29T00:18:02.422Z,66.50
2023-03-29T00:20:30.574Z,66.50
2023-03-29T00:23:04.507Z,66.40
2023-03-29T00:25:32.373Z,66.40
2023-03-29T00:28:01.678Z,66.40
2023-03-29T00:30:29.721Z,66.40
2023-03-29T00:32:57.815Z,66.40
2023-03-29T00:35:28.290Z,66.50
2023-03-29T00:37:57.687Z,66.50
2023-03-29T00:40:25.696Z,66.50
2023-03-29T00:42:55.644Z,66.60
2023-03-29T00:45:30.072Z,66.50
2023-03-29T00:48:00.007Z,66.60
2023-03-29T00:50:32.143Z,66.60
2023-03-29T00:53:05.898Z,66.70
2023-03-29T00:55:38.080Z,66.70
2023-03-29T00:58:09.925Z,66.80
2023-03-29T01:00:45.488Z,66.80
2023-03-29T01:03:24.665Z,66.90
2023-03-29T01:05:57.938Z,66.80
2023-03-29T01:08:29.404Z,66.90
2023-03-29T01:11:03.813Z,66.90
2023-03-29T01:13:38.120Z,67.00
2023-03-29T01:16:11.629Z,67.10
2023-03-29T01:18:39.722Z,67.10
2023-03-29T01:21:23.460Z,67.20
2023-03-29T01:24:19.467Z,67.40
2023-03-29T01:26:55.190Z,67.60
2023-03-29T01:29:29.114Z,67.70
2023-03-29T01:32:02.498Z,67.80
2023-03-29T01:34:37.384Z,68.00
2023-03-29T01:37:09.920Z,68.10
2023-03-29T01:39:37.872Z,68.20
2023-03-29T01:42:15.487Z,68.30
2023-03-29T01:44:52.578Z,68.40
2023-03-29T01:47:27.388Z,68.40
2023-03-29T01:50:06.458Z,68.50
2023-03-29T01:52:40.893Z,68.50
2023-03-29T01:55:14.461Z,68.60
2023-03-29T01:57:46.332Z,68.80
2023-03-29T02:00:19.454Z,68.80
2023-03-29T02:02:52.542Z,68.80
2023-03-29T02:05:22.733Z,68.80
2023-03-29T02:07:52.987Z,69.00
2023-03-29T02:10:22.673Z,69.10
2023-03-29T02:12:52.058Z,69.10
2023-03-29T02:15:23.456Z,69.10
2023-03-29T02:17:52.040Z,69.20
2023-03-29T02:20:25.730Z,69.20
2023-03-29T02:22:59.762Z,69.30
2023-03-29T02:25:27.647Z,69.30
2023-03-29T02:27:55.897Z,69.30
2023-03-29T02:30:29.384Z,69.40
2023-03-29T02:33:02.559Z,69.50
2023-03-29T02:35:36.514Z,69.60
2023-03-29T02:38:08.808Z,69.60
2023-03-29T02:40:37.838Z,69.60
2023-03-29T02:43:08.646Z,69.80
2023-03-29T02:45:39.884Z,69.90
2023-03-29T02:48:12.408Z,70.00
2023-03-29T02:50:42.316Z,69.90
2023-03-29T02:53:15.646Z,70.10
2023-03-29T02:55:46.159Z,70.10
2023-03-29T02:58:15.436Z,70.20
2023-03-29T03:00:46.795Z,70.30
2023-03-29T03:03:16.752Z,70.40
2023-03-29T03:05:47.708Z,70.50
2023-03-29T03:08:16.171Z,70.50
2023-03-29T03:10:44.167Z,70.60
2023-03-29T03:13:12.603Z,70.60
2023-03-29T03:15:43.139Z,70.60
2023-03-29T03:18:12.713Z,70.60
2023-03-29T03:20:40.807Z,70.70
2023-03-29T03:23:09.591Z,70.70
2023-03-29T03:25:38.699Z,70.80
2023-03-29T03:28:06.872Z,70.80
2023-03-29T03:30:34.884Z,70.90
2023-03-29T03:33:19.787Z,71.00
2023-03-29T03:36:07.079Z,71.10
2023-03-29T03:38:37.910Z,71.10
2023-03-29T03:41:08.095Z,71.20
2023-03-29T03:43:36.580Z,71.10
2023-03-29T03:46:04.986Z,71.10
2023-03-29T03:48:34.281Z,71.00
2023-03-29T03:51:09.424Z,71.10
2023-03-29T03:53:38.915Z,71.10
2023-03-29T03:56:16.301Z,71.10
2023-03-29T03:59:03.097Z,71.20
2023-03-29T04:01:43.430Z,71.30
2023-03-29T04:04:20.624Z,71.30
2023-03-29T04:07:17.809Z,71.30
2023-03-29T04:10:13.417Z,71.40
2023-03-29T04:12:51.706Z,71.40
2023-03-29T04:15:20.347Z,71.40
2023-03-29T04:17:56.809Z,71.40
2023-03-29T04:20:29.665Z,71.30
2023-03-29T04:22:58.758Z,71.40
2023-03-29T04:25:32.675Z,71.50
2023-03-29T04:28:23.203Z,71.60
2023-03-29T04:31:11.539Z,71.70
2023-03-29T04:34:02.678Z,71.80
2023-03-29T04:36:31.863Z,71.90
2023-03-29T04:39:01.752Z,71.90
2023-03-29T04:41:30.390Z,72.00
2023-03-29T04:44:07.041Z,72.00
2023-03-29T04:46:40.237Z,72.00
2023-03-29T04:49:27.362Z,72.00
2023-03-29T04:51:57.357Z,72.00
2023-03-29T04:54:29.082Z,72.10
2023-03-29T04:57:20.913Z,72.10
2023-03-29T04:59:59.488Z,72.20
2023-03-29T05:02:46.633Z,72.30
2023-03-29T05:05:16.057Z,72.30
2023-03-29T05:07:46.788Z,72.30
2023-03-29T05:10:16.084Z,72.40
2023-03-29T05:12:43.995Z,72.30
2023-03-29T05:15:12.317Z,72.20
2023-03-29T05:17:40.768Z,72.30
2023-03-29T05:20:13.120Z,72.30
2023-03-29T05:22:49.652Z,72.40
2023-03-29T05:25:37.632Z,72.30
2023-03-29T05:28:05.811Z,72.30
2023-03-29T05:30:40.645Z,72.30
2023-03-29T05:33:21.425Z,72.40
2023-03-29T05:35:49.544Z,72.40
2023-03-29T05:38:18.931Z,72.40
2023-03-29T05:40:46.896Z,72.40
2023-03-29T05:43:40.969Z,72.30
2023-03-29T05:46:09.049Z,72.30
2023-03-29T05:48:41.530Z,72.50
2023-03-29T05:51:09.806Z,72.50
2023-03-29T05:53:38.998Z,72.50
2023-03-29T05:56:08.803Z,72.60
2023-03-29T05:58:36.695Z,72.70
2023-03-29T06:01:05.377Z,72.70
2023-03-29T06:03:56.381Z,72.70
2023-03-29T06:06:31.645Z,72.70
2023-03-29T06:09:02.277Z,72.80
2023-03-29T06:11:35.316Z,73.00
2023-03-29T06:14:36.323Z,73.10
2023-03-29T06:17:28.064Z,73.10
2023-03-29T06:19:57.776Z,73.10
2023-03-29T06:22:27.679Z,73.20
2023-03-29T06:24:57.461Z,73.20
2023-03-29T06:27:30.162Z,73.20
2023-03-29T06:29:59.628Z,73.20
2023-03-29T06:32:28.017Z,73.20
2023-03-29T06:35:04.929Z,73.20
2023-03-29T06:37:49.310Z,73.30
2023-03-29T06:40:24.879Z,73.40
2023-03-29T06:42:57.721Z,73.50
2023-03-29T06:45:45.730Z,73.50
2023-03-29T06:48:22.485Z,73.60
2023-03-29T06:50:50.734Z,73.60
2023-03-29T06:53:19.400Z,73.60
2023-03-29T06:55:56.775Z,73.50
2023-03-29T06:58:46.951Z,73.60
2023-03-29T07:01:33.433Z,73.40
2023-03-29T07:04:09.954Z,73.50
2023-03-29T07:07:05.907Z,73.50
2023-03-29T07:09:39.924Z,73.50
2023-03-29T07:12:38.229Z,73.60
2023-03-29T07:15:07.731Z,73.60
2023-03-29T07:17:58.512Z,73.60
2023-03-29T07:20:27.276Z,73.60
2023-03-29T07:23:09.415Z,73.60
2023-03-29T07:25:38.330Z,73.60
2023-03-29T07:28:09.098Z,73.60
2023-03-29T07:30:37.343Z,73.40
2023-03-29T07:33:20.119Z,73.40
2023-03-29T07:35:55.281Z,73.40
2023-03-29T07:38:23.499Z,73.40
2023-03-29T07:41:04.255Z,73.30
2023-03-29T07:43:51.860Z,73.20
2023-03-29T07:46:24.908Z,73.20
2023-03-29T07:48:52.910Z,73.10
2023-03-29T07:51:21.462Z,73.00
2023-03-29T07:53:51.378Z,73.00
2023-03-29T07:56:49.558Z,72.90
2023-03-29T07:59:21.549Z,73.00
2023-03-29T08:02:01.493Z,72.90
2023-03-29T08:04:36.736Z,72.70
2023-03-29T08:07:20.079Z,72.70
2023-03-29T08:10:08.964Z,72.70
2023-03-29T08:12:56.696Z,72.70
2023-03-29T08:15:33.993Z,72.70
2023-03-29T08:18:01.913Z,72.60
2023-03-29T08:20:29.767Z,72.60
2023-03-29T08:23:02.710Z,72.60
2023-03-29T08:25:52.124Z,72.50
2023-03-29T08:28:23.342Z,72.40
2023-03-29T08:30:54.438Z,72.40
2023-03-29T08:33:23.084Z,72.40
2023-03-29T08:36:06.628Z,72.40
2023-03-29T08:38:37.946Z,72.30
2023-03-29T08:41:20.789Z,72.30
2023-03-29T08:44:07.093Z,72.20
2023-03-29T08:46:50.205Z,72.10
2023-03-29T08:49:32.785Z,72.10
2023-03-29T08:52:06.348Z,72.00
2023-03-29T08:54:44.620Z,72.00
2023-03-29T08:57:34.388Z,71.90
2023-03-29T09:00:10.544Z,71.90
2023-03-29T09:02:44.764Z,71.90
2023-03-29T09:05:23.586Z,71.80
2023-03-29T09:08:01.023Z,71.60
2023-03-29T09:10:38.265Z,71.60
2023-03-29T09:13:24.227Z,71.60
2023-03-29T09:16:01.122Z,71.60
2023-03-29T09:18:47.407Z,71.50
2023-03-29T09:21:23.668Z,71.70
2023-03-29T09:24:19.982Z,71.50
2023-03-29T09:27:16.303Z,71.40
2023-03-29T09:29:59.373Z,71.40
2023-03-29T09:32:50.806Z,71.40
2023-03-29T09:35:26.129Z,71.50
2023-03-29T09:37:55.600Z,71.40
2023-03-29T09:40:28.915Z,71.40
2023-03-29T09:43:09.401Z,71.30
2023-03-29T09:45:38.518Z,71.10
2023-03-29T09:48:13.796Z,70.90
2023-03-29T09:50:51.178Z,71.00
2023-03-29T09:53:21.841Z,71.00
2023-03-29T09:56:09.301Z,71.00
2023-03-29T09:58:49.962Z,70.70
2023-03-29T10:01:19.739Z,70.60
2023-03-29T10:03:52.272Z,70.50
2023-03-29T10:06:25.470Z,70.50
2023-03-29T10:08:59.060Z,70.30
2023-03-29T10:11:53.850Z,70.40
2023-03-29T10:14:31.716Z,70.30
2023-03-29T10:17:00.533Z,70.30
2023-03-29T10:19:30.917Z,70.80
2023-03-29T10:22:04.910Z,70.90
2023-03-29T10:24:33.352Z,70.40
2023-03-29T10:27:04.083Z,70.30
2023-03-29T10:29:37.696Z,70.10
2023-03-29T10:32:15.510Z,69.70
2023-03-29T10:34:44.168Z,69.70
2023-03-29T10:37:16.617Z,69.60
2023-03-29T10:39:44.764Z,69.30
2023-03-29T10:42:15.524Z,69.20
2023-03-29T10:44:43.523Z,69.10
2023-03-29T10:47:17.569Z,69.10
2023-03-29T10:49:47.984Z,68.90
2023-03-29T10:52:18.418Z,68.80
2023-03-29T10:54:47.305Z,68.70
2023-03-29T10:57:25.089Z,68.60
2023-03-29T10:59:59.824Z,68.60
2023-03-29T11:03:01.384Z,68.30
2023-03-29T11:05:36.781Z,68.10
2023-03-29T11:08:31.147Z,68.20
2023-03-29T11:11:10.308Z,67.90
2023-03-29T11:13:50.318Z,67.80
2023-03-29T11:19:39.850Z,67.60
2023-03-29T11:22:14.765Z,67.40
2023-03-29T11:25:01.160Z,67.30
2023-03-29T11:27:38.658Z,67.10
2023-03-29T11:30:14.710Z,67.00
2023-03-29T11:32:51.365Z,66.80
2023-03-29T11:35:39.120Z,66.80
2023-03-29T11:38:14.960Z,66.70
2023-03-29T11:40:51.505Z,66.70
2023-03-29T11:43:25.884Z,66.90
2023-03-29T11:45:56.836Z,67.00
2023-03-29T11:48:29.769Z,67.00
2023-03-29T11:51:02.829Z,66.90
2023-03-29T11:53:42.170Z,66.90
2023-03-29T11:56:15.448Z,66.70
2023-03-29T11:58:49.842Z,66.80
2023-03-29T12:01:22.934Z,66.50
2023-03-29T12:03:54.078Z,66.70
2023-03-29T12:06:26.882Z,66.80
2023-03-29T12:09:00.530Z,66.90
2023-03-29T12:11:36.194Z,66.50
2023-03-29T12:14:08.590Z,66.50
2023-03-29T12:16:41.683Z,66.50
2023-03-29T12:19:21.500Z,66.50
2023-03-29T12:21:50.781Z,66.50
2023-03-29T12:24:21.702Z,66.40
2023-03-29T12:27:10.369Z,66.40
2023-03-29T12:30:12.496Z,66.50
2023-03-29T12:32:51.959Z,66.70
2023-03-29T12:35:55.693Z,66.80
2023-03-29T12:38:55.175Z,66.90
2023-03-29T12:42:17.646Z,67.00
2023-03-29T12:45:05.733Z,67.10
2023-03-29T12:47:39.815Z,67.30
2023-03-29T12:50:18.084Z,67.50
2023-03-29T12:52:46.640Z,67.60
2023-03-29T12:55:30.640Z,67.50
2023-03-29T12:58:03.526Z,67.60
2023-03-29T13:00:35.565Z,67.70
2023-03-29T13:03:07.264Z,67.80
2023-03-29T13:05:38.075Z,67.70
2023-03-29T13:08:22.242Z,67.80
2023-03-29T13:10:55.282Z,68.20
2023-03-29T13:13:28.956Z,68.10
2023-03-29T13:15:57.111Z,68.00
2023-03-29T13:18:41.361Z,68.00
2023-03-29T13:21:18.670Z,68.10
2023-03-29T13:23:58.940Z,68.10
2023-03-29T13:26:42.657Z,68.30
2023-03-29T13:29:35.054Z,68.30
2023-03-29T13:32:13.392Z,68.40
2023-03-29T13:34:48.787Z,68.50
2023-03-29T13:37:30.729Z,68.60
2023-03-29T13:39:58.830Z,68.70
2023-03-29T13:42:41.748Z,68.70
2023-03-29T13:45:16.751Z,68.80
2023-03-29T13:48:02.375Z,68.70
2023-03-29T13:50:40.686Z,68.60
2023-03-29T13:53:15.929Z,68.70
2023-03-29T13:55:48.511Z,68.60
2023-03-29T13:58:27.488Z,68.50
2023-03-29T14:01:03.280Z,68.50
2023-03-29T14:03:38.221Z,68.40
2023-03-29T14:06:12.909Z,68.40
2023-03-29T14:08:42.719Z,68.60
2023-03-29T14:11:24.141Z,68.70
2023-03-29T14:13:54.471Z,68.70
2023-03-29T14:16:27.684Z,68.60
2023-03-29T14:19:00.118Z,68.50
2023-03-29T14:21:28.136Z,68.40
2023-03-29T14:23:58.301Z,68.40
2023-03-29T14:26:31.785Z,68.30
2023-03-29T14:29:04.168Z,68.10
2023-03-29T14:31:35.720Z,68.10
2023-03-29T14:34:06.615Z,67.90
2023-03-29T14:36:35.427Z,68.10
2023-03-29T14:39:05.844Z,67.90
2023-03-29T14:41:36.837Z,67.80
2023-03-29T14:44:06.731Z,67.70
2023-03-29T14:46:36.870Z,67.70
2023-03-29T14:49:07.256Z,67.40
2023-03-29T14:51:35.237Z,67.40
2023-03-29T14:54:06.610Z,67.30
2023-03-29T14:56:35.856Z,67.20
2023-03-29T14:59:05.694Z,67.30
2023-03-29T15:01:44.403Z,67.40
2023-03-29T15:04:13.009Z,67.40
2023-03-29T15:06:44.879Z,67.40
2023-03-29T15:09:18.777Z,67.40
2023-03-29T15:11:53.609Z,67.50
2023-03-29T15:14:23.501Z,67.60
2023-03-29T15:16:55.140Z,67.70
2023-03-29T15:19:27.099Z,67.50
2023-03-29T15:21:56.759Z,67.40
2023-03-29T15:24:31.542Z,67.30
2023-03-29T15:27:04.022Z,67.30
2023-03-29T15:29:40.180Z,67.10
2023-03-29T15:32:12.005Z,67.10
2023-03-29T15:34:39.911Z,67.00
2023-03-29T15:37:08.087Z,66.90
2023-03-29T15:39:45.359Z,66.70
2023-03-29T15:42:13.682Z,66.70
2023-03-29T15:44:41.896Z,66.50
2023-03-29T15:47:13.140Z,66.60
2023-03-29T15:49:41.093Z,66.50
2023-03-29T15:52:09.029Z,66.40
2023-03-29T15:54:37.178Z,66.30
2023-03-29T15:57:08.387Z,66.40
2023-03-29T15:59:37.289Z,66.30
2023-03-29T16:02:07.780Z,66.30
2023-03-29T16:04:37.006Z,66.30
2023-03-29T16:07:12.043Z,66.20
2023-03-29T16:09:40.030Z,66.20
2023-03-29T16:12:08.964Z,66.20
2023-03-29T16:14:36.862Z,66.20
2023-03-29T16:17:06.022Z,66.20
2023-03-29T16:19:34.899Z,66.20
2023-03-29T16:22:07.072Z,66.20
2023-03-29T16:24:36.966Z,66.10
2023-03-29T16:27:05.218Z,66.20
2023-03-29T16:29:33.058Z,66.20
2023-03-29T16:32:01.621Z,66.20
2023-03-29T16:34:30.866Z,66.10
2023-03-29T16:36:58.923Z,66.00
2023-03-29T16:39:28.099Z,66.00
2023-03-29T16:41:56.260Z,66.10
2023-03-29T16:44:27.835Z,66.10
2023-03-29T16:46:58.025Z,66.00
2023-03-29T16:49:25.868Z,66.00
2023-03-29T16:51:55.216Z,66.00
2023-03-29T16:54:31.650Z,66.00
2023-03-29T16:57:00.643Z,66.00
2023-03-29T16:59:28.681Z,66.00
2023-03-29T17:01:56.976Z,66.00
2023-03-29T17:04:27.915Z,66.00
2023-03-29T17:06:57.031Z,66.10
2023-03-29T17:09:25.788Z,66.00
2023-03-29T17:11:57.712Z,66.00
2023-03-29T17:14:26.446Z,66.20
2023-03-29T17:16:54.444Z,66.30
2023-03-29T17:19:22.347Z,66.30
2023-03-29T17:21:50.551Z,66.30
2023-03-29T17:24:19.557Z,66.30
2023-03-29T17:26:47.419Z,66.40
2023-03-29T17:29:16.669Z,66.40
2023-03-29T17:31:47.621Z,66.50
2023-03-29T17:34:16.376Z,66.50
2023-03-29T17:36:45.750Z,66.60
2023-03-29T17:39:15.717Z,66.60
2023-03-29T17:41:48.280Z,66.70
2023-03-29T17:44:19.822Z,66.80
2023-03-29T17:46:48.112Z,66.90
2023-03-29T17:49:16.029Z,66.90
2023-03-29T17:51:43.885Z,67.00
2023-03-29T17:54:13.289Z,67.20
2023-03-29T17:56:41.401Z,67.30
2023-03-29T17:59:09.264Z,67.40
2023-03-29T18:01:39.444Z,67.40
2023-03-29T18:04:07.599Z,67.50
2023-03-29T18:06:35.727Z,67.60
2023-03-29T18:09:04.353Z,67.70
2023-03-29T18:11:32.629Z,67.90
2023-03-29T18:14:01.296Z,68.10
2023-03-29T18:16:29.548Z,68.30
2023-03-29T18:18:59.030Z,68.40
2023-03-29T18:21:27.429Z,68.60
2023-03-29T18:23:56.944Z,68.60
2023-03-29T18:26:26.150Z,68.80
2023-03-29T18:28:54.261Z,68.90
2023-03-29T18:31:22.318Z,69.00
2023-03-29T18:33:50.182Z,69.20
2023-03-29T18:36:19.443Z,69.30
2023-03-29T18:38:47.324Z,69.50
2023-03-29T18:41:15.645Z,69.70
2023-03-29T18:43:44.111Z,69.80
2023-03-29T18:46:12.537Z,69.90
2023-03-29T18:48:41.124Z,70.00
2023-03-29T18:51:10.345Z,70.10
2023-03-29T18:53:41.573Z,70.20
2023-03-29T18:56:09.459Z,70.40
2023-03-29T18:58:37.348Z,70.40
2023-03-29T19:01:06.973Z,70.50
2023-03-29T19:03:36.213Z,70.70
2023-03-29T19:06:05.339Z,70.70
2023-03-29T19:08:34.458Z,70.60
2023-03-29T19:11:05.466Z,70.70
2023-03-29T19:13:33.406Z,70.90
2023-03-29T19:16:01.558Z,70.90
2023-03-29T19:18:30.237Z,71.00
2023-03-29T19:20:58.110Z,71.10
2023-03-29T19:23:28.238Z,71.00
2023-03-29T19:25:57.462Z,71.20
2023-03-29T19:28:27.574Z,71.20
2023-03-29T19:30:55.831Z,71.30
2023-03-29T19:33:24.039Z,71.50
2023-03-29T19:35:52.258Z,71.60
2023-03-29T19:38:20.686Z,71.70
2023-03-29T19:40:49.494Z,71.70
2023-03-29T19:43:21.911Z,71.50
2023-03-29T19:45:52.900Z,71.50
2023-03-29T19:48:23.852Z,71.40
2023-03-29T19:50:52.609Z,71.30
2023-03-29T19:53:23.237Z,71.20
2023-03-29T19:55:52.411Z,71.20
2023-03-29T19:58:20.520Z,71.10
2023-03-29T20:00:53.274Z,71.10
2023-03-29T20:03:21.777Z,71.00
2023-03-29T20:05:52.142Z,70.90
2023-03-29T20:08:24.694Z,70.90
2023-03-29T20:10:58.569Z,70.80
2023-03-29T20:13:37.569Z,70.70
2023-03-29T20:16:10.340Z,70.70
2023-03-29T20:18:41.814Z,70.70
2023-03-29T20:21:10.573Z,70.70
2023-03-29T20:23:38.783Z,70.70
2023-03-29T20:26:08.423Z,70.70
2023-03-29T20:28:37.480Z,70.70
2023-03-29T20:31:10.620Z,70.60
2023-03-29T20:33:39.197Z,70.50
2023-03-29T20:36:08.522Z,70.50
2023-03-29T20:38:42.483Z,70.50
2023-03-29T20:41:11.607Z,70.40
2023-03-29T20:43:41.109Z,70.40
2023-03-29T20:46:14.670Z,70.40
2023-03-29T20:48:52.891Z,70.30
2023-03-29T20:51:30.203Z,70.20
2023-03-29T20:54:04.652Z,70.30
2023-03-29T20:56:34.405Z,70.30
2023-03-29T20:59:10.687Z,70.20
2023-03-29T21:01:41.100Z,70.20
2023-03-29T21:04:10.681Z,70.30
2023-03-29T21:06:39.512Z,70.30
2023-03-29T21:09:07.873Z,70.30
2023-03-29T21:11:36.074Z,70.30
2023-03-29T21:14:04.078Z,70.30
2023-03-29T21:16:33.908Z,70.30
2023-03-29T21:19:03.187Z,70.30
2023-03-29T21:21:31.243Z,70.30
2023-03-29T21:23:59.048Z,70.30
2023-03-29T21:26:27.042Z,70.30
2023-03-29T21:28:54.972Z,70.30
2023-03-29T21:31:23.876Z,70.30
2023-03-29T21:33:53.108Z,70.30
2023-03-29T21:36:22.687Z,70.30
2023-03-29T21:38:50.974Z,70.30
2023-03-29T21:41:19.166Z,70.30
2023-03-29T21:43:47.172Z,70.30
2023-03-29T21:46:15.534Z,70.40
2023-03-29T21:48:43.563Z,70.60
2023-03-29T21:51:11.615Z,70.60
2023-03-29T21:53:41.936Z,70.70
2023-03-29T21:56:11.848Z,70.70
2023-03-29T21:58:39.784Z,70.70
2023-03-29T22:01:10.141Z,70.70
2023-03-29T22:03:39.169Z,70.70
2023-03-29T22:06:09.605Z,70.80
2023-03-29T22:08:40.508Z,70.80
2023-03-29T22:11:13.747Z,70.90
2023-03-29T22:13:42.362Z,71.00
2023-03-29T22:16:13.763Z,70.90
2023-03-29T22:18:44.174Z,71.00
2023-03-29T22:21:15.024Z,71.00
2023-03-29T22:23:48.730Z,71.10
2023-03-29T22:26:21.101Z,71.20
2023-03-29T22:28:49.372Z,71.20
2023-03-29T22:31:19.820Z,71.20
2023-03-29T22:33:48.386Z,71.30
2023-03-29T22:36:18.334Z,71.30
2023-03-29T22:38:47.454Z,71.30
2023-03-29T22:41:16.181Z,71.30
2023-03-29T22:43:45.983Z,71.30
2023-03-29T22:46:14.964Z,71.30
2023-03-29T22:48:43.212Z,71.30
2023-03-29T22:51:11.413Z,71.40
2023-03-29T22:53:39.239Z,71.40
2023-03-29T22:56:09.020Z,71.40
2023-03-29T22:58:37.398Z,71.40
2023-03-29T23:01:07.751Z,71.40
2023-03-29T23:03:36.752Z,71.50
2023-03-29T23:06:05.496Z,71.50
2023-03-29T23:08:34.992Z,71.50
2023-03-29T23:11:05.361Z,71.60
2023-03-29T23:13:35.067Z,71.70
2023-03-29T23:16:05.130Z,71.70
2023-03-29T23:18:37.271Z,71.70
2023-03-29T23:21:06.643Z,71.70
2023-03-29T23:23:35.706Z,71.70
2023-03-29T23:26:03.976Z,71.70
2023-03-29T23:28:34.179Z,71.70
2023-03-29T23:31:03.789Z,71.80
2023-03-29T23:33:42.457Z,71.80
2023-03-29T23:36:12.211Z,71.80
2023-03-29T23:38:42.179Z,71.80
2023-03-29T23:41:12.702Z,71.80
2023-03-29T23:43:42.502Z,71.80
2023-03-29T23:46:12.097Z,71.70
2023-03-29T23:48:44.575Z,71.70
2023-03-29T23:51:12.812Z,71.70
2023-03-29T23:53:40.720Z,71.70
2023-03-29T23:56:09.117Z,71.70
2023-03-29T23:58:38.501Z,71.70
